Time;durP1;ratioP1;P1;durP2;ratioP2;P2;SDS_P1;SDS_P2;PMS_P1;PMS_P2;Temp;Humidity;BMP_temperature;BMP_pressure;BME280_temperature;BME280_humidity;BME280_pressure;Samples;Min_cycle;Max_cycle;Signal;HPM_P1;HPM_P2
2021/09/08 00:00:07;;;;;;;8.98;5.55;;;;;;;21.68;36.64;100839.69;1785441;79;21537;-76
2021/09/08 00:02:36;;;;;;;8.03;5.17;;;;;;;21.65;36.68;100836.05;1776408;79;22172;-75
2021/09/08 00:05:04;;;;;;;8.43;5.78;;;;;;;21.65;36.56;100839.28;1776186;79;21084;-76
2021/09/08 00:07:31;;;;;;;10.30;5.72;;;;;;;21.63;36.56;100842.72;1789021;79;21541;-76
2021/09/08 00:09:58;;;;;;;7.58;5.72;;;;;;;21.61;36.44;100838.88;1778089;78;21544;-76
2021/09/08 00:12:24;;;;;;;9.30;5.47;;;;;;;21.59;36.41;100842.31;1790037;79;21439;-76
2021/09/08 00:14:52;;;;;;;8.70;6.00;;;;;;;21.58;36.39;100839.32;1782175;79;21088;-76
2021/09/08 00:17:20;;;;;;;5.90;5.00;;;;;;;21.56;36.43;100844.11;1783335;79;21100;-67
2021/09/08 00:19:46;;;;;;;6.97;5.17;;;;;;;21.55;36.83;100801.89;1781988;79;21198;-66
2021/09/08 00:22:13;;;;;;;8.83;5.08;;;;;;;21.57;37.96;100804.67;1778890;79;21099;-65
2021/09/08 00:24:41;;;;;;;6.40;4.78;;;;;;;21.64;38.42;100802.48;1786525;79;21099;-65
2021/09/08 00:27:09;;;;;;;10.20;5.78;;;;;;;21.72;38.64;100803.58;1793475;78;21065;-67
2021/09/08 00:29:35;;;;;;;8.95;5.22;;;;;;;21.82;38.76;100804.47;1774866;79;21588;-67
2021/09/08 00:32:06;;;;;;;7.97;5.30;;;;;;;21.90;38.86;100802.85;1776164;79;21092;-67
2021/09/08 00:34:33;;;;;;;10.63;5.28;;;;;;;21.97;38.91;100801.77;1774460;79;21026;-67
2021/09/08 00:37:01;;;;;;;8.20;4.92;;;;;;;22.04;39.02;100799.03;1776437;79;21042;-67
2021/09/08 00:39:28;;;;;;;6.55;5.08;;;;;;;22.12;39.12;100807.41;1786428;79;20993;-66
2021/09/08 00:41:57;;;;;;;6.00;4.60;;;;;;;22.19;39.18;100807.67;1780280;78;21054;-66
2021/09/08 00:44:27;;;;;;;6.62;5.08;;;;;;;22.24;39.23;100798.06;1777297;79;21033;-66
2021/09/08 00:46:53;;;;;;;7.05;5.00;;;;;;;22.31;39.23;100805.63;1776450;80;21090;-66
2021/09/08 00:49:22;;;;;;;9.15;4.65;;;;;;;22.35;39.29;100799.56;1760005;80;21592;-66
2021/09/08 00:51:50;;;;;;;8.80;5.08;;;;;;;22.41;39.29;100801.92;1774838;80;21057;-66
2021/09/08 00:54:20;;;;;;;6.08;4.67;;;;;;;22.45;39.33;100797.72;1780437;80;21584;-66
2021/09/08 00:56:46;;;;;;;8.03;5.03;;;;;;;22.50;39.37;100803.31;1775762;80;21098;-66
2021/09/08 00:59:16;;;;;;;6.87;4.97;;;;;;;22.54;39.37;100797.75;1783079;78;21025;-66
2021/09/08 01:01:45;;;;;;;5.28;4.78;;;;;;;22.57;39.41;100802.70;1781708;80;21236;-65
2021/09/08 01:04:17;;;;;;;6.90;4.92;;;;;;;22.61;39.45;100803.63;1772807;80;21048;-65
2021/09/08 01:06:45;;;;;;;5.27;4.53;;;;;;;22.64;39.46;100801.81;1784143;79;21116;-66
2021/09/08 01:09:13;;;;;;;5.95;4.75;;;;;;;22.66;39.49;100802.45;1799727;79;21178;-66
2021/09/08 01:11:42;;;;;;;6.10;4.80;;;;;;;22.69;39.51;100810.11;1794396;77;21046;-65
2021/09/08 01:14:11;;;;;;;6.17;4.58;;;;;;;22.72;39.53;100802.91;1783456;80;21675;-66
2021/09/08 01:16:39;;;;;;;6.53;5.20;;;;;;;22.75;39.57;100798.38;1766246;79;21032;-65
2021/09/08 01:19:06;;;;;;;8.05;4.75;;;;;;;22.77;39.58;100786.80;1788429;78;21012;-65
2021/09/08 01:21:33;;;;;;;6.87;4.70;;;;;;;22.78;39.63;100792.00;1764827;80;21114;-65
2021/09/08 01:24:06;;;;;;;5.53;4.53;;;;;;;22.82;39.65;100792.91;1758540;78;21080;-66
2021/09/08 01:26:37;;;;;;;7.15;4.83;;;;;;;22.83;39.69;100784.58;1807429;78;21443;-66
2021/09/08 01:29:04;;;;;;;6.50;4.42;;;;;;;22.85;39.69;100789.23;1787114;79;21041;-65
2021/09/08 01:31:30;;;;;;;6.17;4.65;;;;;;;22.88;39.76;100789.30;1786412;79;21045;-66
2021/09/08 01:33:57;;;;;;;6.08;4.28;;;;;;;22.89;39.76;100787.73;1793580;78;21142;-66
2021/09/08 01:36:25;;;;;;;5.55;4.67;;;;;;;22.84;39.77;100768.61;1782547;79;21077;-67
2021/09/08 01:38:51;;;;;;;6.30;4.80;;;;;;;22.92;39.85;100779.14;1790286;79;21033;-65
2021/09/08 01:41:18;;;;;;;6.22;4.42;;;;;;;22.94;39.83;100781.62;1801776;79;21045;-65
2021/09/08 01:43:45;;;;;;;6.28;4.70;;;;;;;22.97;39.85;100778.48;1791363;79;21057;-66
2021/09/08 01:46:20;;;;;;;5.87;4.60;;;;;;;22.97;39.91;100775.23;1795010;79;21148;-66
2021/09/08 01:48:47;;;;;;;4.42;3.95;;;;;;;23.00;40.01;100784.79;1798282;79;21584;-66
2021/09/08 01:51:13;;;;;;;6.70;4.40;;;;;;;23.00;39.99;100776.66;1785910;80;21489;-66
2021/09/08 01:53:41;;;;;;;5.83;4.08;;;;;;;23.03;39.99;100774.91;1786204;78;21198;-67
2021/09/08 01:56:07;;;;;;;6.60;4.40;;;;;;;23.04;40.00;100776.54;1795098;78;21088;-66
2021/09/08 01:58:34;;;;;;;5.03;4.10;;;;;;;23.06;40.04;100778.49;1818122;78;21108;-66
2021/09/08 02:01:03;;;;;;;5.47;4.58;;;;;;;23.08;40.04;100786.41;1792422;78;21022;-66
2021/09/08 02:03:29;;;;;;;6.30;4.72;;;;;;;23.10;40.10;100785.66;1772537;80;21599;-66
2021/09/08 02:05:56;;;;;;;6.12;4.20;;;;;;;23.12;40.15;100786.25;1792116;80;21457;-66
2021/09/08 02:08:24;;;;;;;4.95;3.90;;;;;;;23.14;40.15;100782.79;1770588;79;21065;-66
2021/09/08 02:10:50;;;;;;;7.72;4.40;;;;;;;23.15;40.12;100777.69;1765835;79;22359;-66
2021/09/08 02:13:19;;;;;;;5.03;4.28;;;;;;;23.17;40.16;100783.70;1807872;78;21506;-65
2021/09/08 02:15:47;;;;;;;4.83;4.28;;;;;;;23.19;40.16;100786.20;1781730;80;21022;-65
2021/09/08 02:18:14;;;;;;;5.05;4.25;;;;;;;23.20;40.20;100783.27;1816773;78;21017;-65
2021/09/08 02:20:42;;;;;;;6.33;4.10;;;;;;;23.21;40.29;100780.02;1804390;78;21041;-65
2021/09/08 02:23:08;;;;;;;5.47;4.22;;;;;;;23.23;40.29;100778.73;1810128;78;21124;-65
2021/09/08 02:25:34;;;;;;;5.37;4.42;;;;;;;23.24;40.44;100780.40;1815560;78;21062;-65
2021/09/08 02:28:04;;;;;;;5.92;4.40;;;;;;;23.26;40.50;100780.18;1781323;78;21537;-66
2021/09/08 02:30:30;;;;;;;5.75;4.37;;;;;;;23.26;40.51;100778.28;1800595;78;21463;-68
2021/09/08 02:32:57;;;;;;;4.67;4.20;;;;;;;23.29;40.56;100787.84;1797361;78;21085;-66
2021/09/08 02:35:23;;;;;;;5.65;4.12;;;;;;;23.30;40.53;100781.38;1812451;78;21786;-67
2021/09/08 02:37:50;;;;;;;5.85;4.33;;;;;;;23.32;40.58;100780.62;1801580;78;21036;-65
2021/09/08 02:40:17;;;;;;;7.62;4.80;;;;;;;23.32;40.71;100784.15;1782381;79;21143;-66
2021/09/08 02:42:43;;;;;;;4.40;4.00;;;;;;;23.34;40.63;100790.70;1788068;79;21088;-66
2021/09/08 02:45:11;;;;;;;5.28;4.35;;;;;;;23.34;40.63;100784.75;1777817;79;21080;-65
2021/09/08 02:47:38;;;;;;;5.08;3.77;;;;;;;23.36;40.72;100783.17;1793162;79;21143;-67
2021/09/08 02:50:05;;;;;;;7.15;3.85;;;;;;;;;;1791722;79;21041;-67
2021/09/08 02:52:32;;;;;;;4.12;3.45;;;;;;;23.39;40.85;100785.95;1765577;78;21047;-66
2021/09/08 02:54:58;;;;;;;5.28;4.00;;;;;;;23.39;40.69;100783.23;1821253;78;20994;-66
2021/09/08 02:57:25;;;;;;;6.15;3.90;;;;;;;23.40;40.72;100780.84;1783681;80;21009;-66
2021/09/08 02:59:51;;;;;;;4.85;3.80;;;;;;;23.41;40.75;100783.83;1809653;78;21152;-67
2021/09/08 03:02:17;;;;;;;4.28;3.30;;;;;;;23.41;40.74;100783.33;1815248;78;21065;-66
2021/09/08 03:04:44;;;;;;;7.00;3.85;;;;;;;23.41;40.72;100777.91;1797692;78;21033;-66
2021/09/08 03:07:12;;;;;;;6.58;4.17;;;;;;;23.42;40.78;100774.66;1774083;80;21010;-66
2021/09/08 03:09:41;;;;;;;4.05;3.45;;;;;;;23.43;40.68;100773.08;1782845;78;21009;-67
2021/09/08 03:12:07;;;;;;;4.72;4.00;;;;;;;23.43;40.71;100770.38;1770262;79;21113;-67
2021/09/08 03:14:34;;;;;;;5.45;4.17;;;;;;;23.44;40.76;100773.91;1808236;79;21478;-66
2021/09/08 03:17:00;;;;;;;5.87;4.45;;;;;;;23.44;40.67;100770.66;1808873;79;21030;-67
2021/09/08 03:19:28;;;;;;;4.58;3.85;;;;;;;23.45;40.66;100768.77;1782803;79;21006;-67
2021/09/08 03:21:56;;;;;;;6.70;3.50;;;;;;;23.45;40.63;100776.39;1760244;80;21002;-67
2021/09/08 03:24:23;;;;;;;3.98;3.45;;;;;;;23.46;40.71;100774.50;1763674;79;21144;-68
2021/09/08 03:26:50;;;;;;;5.15;3.92;;;;;;;23.47;40.72;100767.50;1782758;79;21567;-68
2021/09/08 03:29:17;;;;;;;4.28;3.80;;;;;;;23.48;40.60;100769.67;1785164;80;21045;-66
2021/09/08 03:31:44;;;;;;;5.97;3.80;;;;;;;23.48;40.70;100766.42;1790011;78;20983;-67
2021/09/08 03:34:10;;;;;;;8.13;3.77;;;;;;;23.48;40.62;100765.07;1821223;78;21013;-67
2021/09/08 03:36:37;;;;;;;5.15;4.20;;;;;;;23.49;40.72;100781.66;1793383;78;21120;-67
2021/09/08 03:39:04;;;;;;;4.85;3.77;;;;;;;23.50;40.62;100775.69;1800368;78;21026;-67
2021/09/08 03:41:31;;;;;;;4.55;4.08;;;;;;;23.50;40.57;100777.87;1783024;79;21045;-67
2021/09/08 03:43:57;;;;;;;6.83;4.65;;;;;;;23.50;40.52;100778.41;1770190;79;21106;-67
2021/09/08 03:46:23;;;;;;;4.22;3.83;;;;;;;23.51;40.56;100774.66;1818608;78;21062;-67
2021/09/08 03:48:50;;;;;;;5.80;3.87;;;;;;;23.51;40.56;100776.83;1812480;78;21077;-67
2021/09/08 03:51:16;;;;;;;4.70;3.37;;;;;;;23.52;40.57;100781.18;1776850;78;21015;-68
2021/09/08 03:53:42;;;;;;;4.65;3.77;;;;;;;23.52;40.57;100766.80;1805895;78;21033;-66
2021/09/08 03:56:09;;;;;;;4.75;3.67;;;;;;;23.52;40.58;100771.69;1804210;78;21064;-67
2021/09/08 03:58:36;;;;;;;5.30;3.70;;;;;;;23.53;40.62;100771.18;1776431;80;21064;-67
2021/09/08 04:01:03;;;;;;;4.25;3.42;;;;;;;23.53;40.51;100779.31;1781992;80;21130;-66
2021/09/08 04:03:30;;;;;;;4.28;3.87;;;;;;;23.53;40.41;100774.71;1805181;78;21499;-68
2021/09/08 04:05:57;;;;;;;6.28;4.08;;;;;;;23.54;40.55;100780.95;1793014;78;21541;-66
2021/09/08 04:08:24;;;;;;;3.62;3.27;;;;;;;23.54;40.53;100785.02;1811250;78;21010;-68
2021/09/08 04:10:50;;;;;;;5.53;3.90;;;;;;;23.55;40.63;100780.73;1809897;78;20989;-68
2021/09/08 04:13:17;;;;;;;4.70;3.87;;;;;;;23.56;40.66;100780.20;1798347;78;21448;-67
2021/09/08 04:15:45;;;;;;;4.80;3.58;;;;;;;23.55;40.54;100782.09;1806223;78;21076;-67
2021/09/08 04:18:13;;;;;;;4.00;3.55;;;;;;;23.58;40.55;100769.95;1780260;78;21039;-68
2021/09/08 04:20:40;;;;;;;4.95;3.52;;;;;;;23.58;40.68;100773.19;1820963;78;20993;-68
2021/09/08 04:23:06;;;;;;;5.08;4.00;;;;;;;23.58;40.60;100771.30;1777800;78;21037;-68
2021/09/08 04:25:33;;;;;;;6.08;3.98;;;;;;;23.59;40.64;100773.51;1821252;78;21148;-68
2021/09/08 04:28:00;;;;;;;5.40;3.72;;;;;;;23.59;40.55;100766.19;1809251;78;21041;-67
2021/09/08 04:30:27;;;;;;;8.13;4.45;;;;;;;23.60;40.65;100772.44;1811986;78;21049;-67
2021/09/08 04:32:53;;;;;;;4.10;3.70;;;;;;;23.61;40.64;100770.03;1793020;78;21052;-68
2021/09/08 04:35:20;;;;;;;3.98;3.40;;;;;;;23.62;40.63;100771.67;1785147;80;21090;-68
2021/09/08 04:37:46;;;;;;;7.97;3.90;;;;;;;23.63;40.62;100769.28;1783326;80;21160;-67
2021/09/08 04:40:13;;;;;;;6.10;3.83;;;;;;;23.63;40.67;100767.92;1797317;78;21006;-67
2021/09/08 04:42:40;;;;;;;6.08;3.72;;;;;;;23.63;40.67;100770.09;1815739;78;21053;-67
2021/09/08 04:45:07;;;;;;;6.15;4.03;;;;;;;23.64;40.64;100769.05;1778826;80;21030;-67
2021/09/08 04:47:33;;;;;;;5.90;3.90;;;;;;;23.63;40.68;100766.03;1788114;78;21080;-67
2021/09/08 04:50:00;;;;;;;4.75;3.50;;;;;;;23.65;40.69;100770.69;1804230;78;21170;-66
2021/09/08 04:52:26;;;;;;;5.70;3.83;;;;;;;23.66;40.73;100772.36;1803720;78;21049;-66
2021/09/08 04:54:54;;;;;;;4.37;3.58;;;;;;;23.67;40.74;100771.83;1807271;78;21003;-68
2021/09/08 04:57:22;;;;;;;7.28;4.08;;;;;;;23.67;40.69;100768.58;1798951;78;21029;-66
2021/09/08 04:59:49;;;;;;;5.53;3.52;;;;;;;23.67;40.66;100768.58;1788401;78;21098;-67
2021/09/08 05:02:15;;;;;;;4.55;3.72;;;;;;;23.68;40.63;100770.25;1781063;78;21115;-68
2021/09/08 05:04:42;;;;;;;4.33;3.52;;;;;;;23.69;40.63;100772.42;1811148;78;21556;-67
2021/09/08 05:07:09;;;;;;;5.08;4.00;;;;;;;23.69;40.70;100769.17;1796604;79;21010;-67
2021/09/08 05:09:36;;;;;;;5.10;3.85;;;;;;;23.69;40.70;100769.17;1798881;79;21033;-68
2021/09/08 05:12:03;;;;;;;4.37;3.77;;;;;;;23.69;40.65;100769.17;1801366;79;21092;-68
2021/09/08 05:14:31;;;;;;;5.65;3.30;;;;;;;23.70;40.71;100766.77;1788754;78;21117;-67
2021/09/08 05:16:58;;;;;;;5.67;3.90;;;;;;;23.72;40.73;100757.88;1800864;79;21048;-68
2021/09/08 05:19:26;;;;;;;4.42;3.70;;;;;;;23.73;40.83;100769.55;1801515;79;21033;-68
2021/09/08 05:21:54;;;;;;;6.10;3.67;;;;;;;23.73;40.87;100760.87;1777889;79;21526;-67
2021/09/08 05:24:20;;;;;;;4.72;3.15;;;;;;;23.74;40.93;100762.53;1783717;79;21087;-68
2021/09/08 05:26:47;;;;;;;4.05;3.42;;;;;;;23.75;40.90;100761.46;1765388;80;21152;-70
2021/09/08 05:29:16;;;;;;;4.58;3.62;;;;;;;23.77;41.04;100763.13;1765371;80;21105;-68
2021/09/08 05:31:44;;;;;;;4.03;3.62;;;;;;;23.78;40.96;100756.16;1775615;78;21045;-68
2021/09/08 05:34:10;;;;;;;5.35;3.37;;;;;;;23.79;40.99;100761.05;1760139;80;21014;-67
2021/09/08 05:36:37;;;;;;;5.25;3.92;;;;;;;23.79;40.87;100753.72;1774672;80;21044;-68
2021/09/08 05:39:03;;;;;;;4.97;3.77;;;;;;;23.81;40.94;100752.14;1781933;80;21138;-67
2021/09/08 05:41:30;;;;;;;4.08;3.30;;;;;;;23.81;41.09;100755.67;1763029;80;21052;-67
2021/09/08 05:43:58;;;;;;;4.15;3.42;;;;;;;23.83;41.02;100747.31;1765719;80;21030;-66
2021/09/08 05:46:25;;;;;;;3.90;3.50;;;;;;;23.83;41.05;100753.55;1773802;80;21045;-68
2021/09/08 05:48:51;;;;;;;5.95;3.30;;;;;;;23.85;40.96;100755.51;1779979;78;21104;-67
2021/09/08 05:51:17;;;;;;;4.65;3.45;;;;;;;23.84;40.94;100755.23;1754905;80;21580;-68
2021/09/08 05:53:44;;;;;;;4.87;4.12;;;;;;;23.86;41.02;100750.39;1777963;80;21045;-67
2021/09/08 05:56:11;;;;;;;5.42;3.47;;;;;;;23.87;40.96;100747.96;1779206;80;21279;-68
2021/09/08 05:58:37;;;;;;;4.30;3.45;;;;;;;23.88;40.96;100763.20;1765589;80;21568;-68
2021/09/08 06:01:04;;;;;;;4.50;3.67;;;;;;;23.90;40.87;100761.61;1774011;80;21017;-68
2021/09/08 06:03:30;;;;;;;5.62;3.60;;;;;;;23.90;40.98;100754.30;1777141;80;21064;-69
2021/09/08 06:05:58;;;;;;;5.62;3.65;;;;;;;23.91;41.17;100757.32;1772351;78;21096;-67
2021/09/08 06:08:24;;;;;;;5.35;3.72;;;;;;;23.92;41.13;100755.42;1778855;80;21135;-67
2021/09/08 06:10:51;;;;;;;5.42;4.00;;;;;;;23.93;41.14;100762.48;1769986;80;21057;-66
2021/09/08 06:13:17;;;;;;;5.05;3.33;;;;;;;23.94;41.16;100766.34;1778111;80;21089;-67
2021/09/08 06:15:44;;;;;;;5.10;3.77;;;;;;;23.95;41.26;100756.30;1784994;80;21165;-66
2021/09/08 06:18:10;;;;;;;4.70;4.08;;;;;;;23.96;41.31;100759.86;1772388;80;21001;-67
2021/09/08 06:20:36;;;;;;;6.47;3.55;;;;;;;23.98;41.28;100751.78;1780919;80;20981;-66
2021/09/08 06:23:03;;;;;;;5.80;4.03;;;;;;;23.99;41.39;100760.73;1783740;78;21089;-66
2021/09/08 06:25:30;;;;;;;9.05;3.87;;;;;;;24.00;41.57;100759.70;1772906;79;21025;-66
2021/09/08 06:27:56;;;;;;;4.58;3.55;;;;;;;24.00;41.56;100756.44;1786464;80;21147;-65
2021/09/08 06:30:23;;;;;;;5.95;4.12;;;;;;;24.01;41.55;100754.04;1779337;80;21073;-66
2021/09/08 06:32:50;;;;;;;4.58;3.50;;;;;;;24.03;41.64;100753.28;1782555;80;21162;-67
2021/09/08 06:35:17;;;;;;;6.45;4.03;;;;;;;24.04;41.65;100749.48;1780330;80;21050;-67
2021/09/08 06:37:44;;;;;;;4.25;3.55;;;;;;;24.06;41.65;100754.15;1760454;80;21052;-67
2021/09/08 06:40:14;;;;;;;4.28;3.77;;;;;;;24.07;41.71;100749.57;1786358;78;21596;-68
2021/09/08 06:42:40;;;;;;;4.83;3.80;;;;;;;24.08;41.77;100759.35;1759893;80;21043;-66
2021/09/08 06:45:09;;;;;;;5.85;3.83;;;;;;;24.08;41.92;100752.03;1757056;80;21085;-66
2021/09/08 06:47:35;;;;;;;6.22;4.20;;;;;;;24.10;41.87;100751.80;1755694;80;21494;-65
2021/09/08 06:50:03;;;;;;;8.43;3.95;;;;;;;24.11;42.13;100747.50;1770770;80;21085;-65
2021/09/08 06:52:29;;;;;;;8.53;4.42;;;;;;;24.11;42.41;100754.29;1766275;80;21976;-69
2021/09/08 06:54:56;;;;;;;7.95;4.50;;;;;;;24.13;42.72;100764.92;1757024;80;21013;-67
2021/09/08 06:57:22;;;;;;;9.85;4.92;;;;;;;24.15;43.00;100769.58;1771775;78;21572;-68
2021/09/08 06:59:49;;;;;;;9.20;4.30;;;;;;;24.17;43.10;100762.57;1764146;80;21080;-66
2021/09/08 07:02:15;;;;;;;29.10;12.10;;;;;;;24.20;43.18;100775.66;1783331;79;21092;-68
2021/09/08 07:04:42;;;;;;;38.75;13.05;;;;;;;24.20;43.16;100768.33;1800558;79;21098;-67
2021/09/08 07:07:08;;;;;;;29.05;11.63;;;;;;;24.21;43.12;100771.90;1782984;80;20970;-68
2021/09/08 07:09:34;;;;;;;32.05;10.68;;;;;;;24.22;43.04;100771.67;1781262;78;21122;-67
2021/09/08 07:12:01;;;;;;;25.17;10.30;;;;;;;24.17;42.92;100764.75;1781615;79;21045;-67
2021/09/08 07:14:28;;;;;;;26.70;9.83;;;;;;;24.25;42.93;100777.16;1791610;78;21088;-67
2021/09/08 07:16:55;;;;;;;28.45;10.58;;;;;;;24.26;42.90;100778.28;1789544;80;21667;-67
2021/09/08 07:19:21;;;;;;;22.00;8.80;;;;;;;24.27;42.78;100779.10;1772697;80;21533;-67
2021/09/08 07:21:49;;;;;;;19.92;8.03;;;;;;;24.28;42.69;100780.73;1780509;80;21292;-67
2021/09/08 07:24:15;;;;;;;18.60;9.45;;;;;;;24.28;42.53;100778.88;1771960;80;21267;-67
2021/09/08 07:26:44;;;;;;;18.75;9.05;;;;;;;24.29;42.43;100780.52;1787077;79;21560;-68
2021/09/08 07:29:10;;;;;;;17.87;8.35;;;;;;;24.30;42.26;100771.86;1789114;79;21539;-68
2021/09/08 07:31:40;;;;;;;17.48;8.18;;;;;;;24.31;42.29;100774.31;1799189;78;21013;-69
2021/09/08 07:34:08;;;;;;;18.62;8.10;;;;;;;24.32;42.20;100778.70;1767748;79;21103;-69
2021/09/08 07:36:34;;;;;;;21.82;8.05;;;;;;;24.34;42.08;100781.19;1795785;79;21017;-70
2021/09/08 07:39:01;;;;;;;16.70;7.95;;;;;;;24.35;42.00;100777.39;1795121;79;21602;-67
2021/09/08 07:41:27;;;;;;;14.80;7.20;;;;;;;24.38;41.94;100777.45;1779916;79;21822;-68
2021/09/08 07:43:55;;;;;;;16.25;7.22;;;;;;;24.39;41.88;100777.76;1781294;79;21545;-70
2021/09/08 07:46:23;;;;;;;16.70;7.53;;;;;;;24.41;41.81;100772.37;1797636;79;21071;-69
2021/09/08 07:48:50;;;;;;;9.60;6.12;;;;;;;24.41;41.71;100775.09;1788922;78;21063;-68
2021/09/08 07:51:16;;;;;;;17.48;7.28;;;;;;;24.42;41.60;100779.48;1790730;79;20988;-69
2021/09/08 07:53:43;;;;;;;13.45;6.40;;;;;;;24.43;41.50;100775.69;1791482;78;21138;-67
2021/09/08 07:56:09;;;;;;;15.88;6.78;;;;;;;24.43;41.41;100766.17;1787374;79;21073;-67
2021/09/08 07:58:36;;;;;;;12.68;7.05;;;;;;;24.45;41.39;100776.27;1786512;79;20999;-68
2021/09/08 08:01:03;;;;;;;11.93;6.55;;;;;;;24.47;41.30;100766.54;1786456;79;21091;-68
2021/09/08 08:03:30;;;;;;;12.47;6.62;;;;;;;24.48;41.26;100772.28;1785722;79;21197;-68
2021/09/08 08:05:57;;;;;;;11.95;6.80;;;;;;;24.49;41.21;100769.34;1794260;78;21166;-67
2021/09/08 08:08:23;;;;;;;11.03;6.85;;;;;;;24.49;41.17;100761.70;1791913;79;21029;-67
2021/09/08 08:10:50;;;;;;;11.35;6.25;;;;;;;24.51;41.15;100768.60;1801460;79;21104;-66
2021/09/08 08:13:17;;;;;;;12.13;6.87;;;;;;;24.51;41.13;100769.95;1797559;79;21065;-68
2021/09/08 08:15:44;;;;;;;8.10;5.78;;;;;;;24.53;41.08;100766.47;1801570;79;21063;-67
2021/09/08 08:18:11;;;;;;;11.15;5.67;;;;;;;24.55;41.00;100765.39;1779908;79;21138;-68
2021/09/08 08:20:37;;;;;;;10.15;6.12;;;;;;;24.55;40.93;100766.24;1777088;79;21030;-67
2021/09/08 08:23:04;;;;;;;11.00;6.08;;;;;;;24.57;40.87;100763.27;1771391;79;21150;-67
2021/09/08 08:25:31;;;;;;;13.75;6.25;;;;;;;24.58;40.78;100767.65;1778905;78;21128;-68
2021/09/08 08:28:02;;;;;;;9.63;5.28;;;;;;;24.59;40.62;100770.14;1794414;79;21028;-67
2021/09/08 08:30:28;;;;;;;9.08;5.28;;;;;;;24.61;40.53;100772.08;1796321;79;21088;-66
2021/09/08 08:32:55;;;;;;;8.93;5.80;;;;;;;24.61;40.49;100772.59;1794131;79;21625;-68
2021/09/08 08:35:21;;;;;;;12.58;5.80;;;;;;;24.62;40.43;100764.75;1775864;79;21088;-68
2021/09/08 08:37:51;;;;;;;9.45;5.37;;;;;;;24.63;40.40;100763.70;1798104;78;21076;-68
2021/09/08 08:40:17;;;;;;;7.28;5.30;;;;;;;24.65;40.37;100762.94;1790388;79;20995;-68
2021/09/08 08:42:44;;;;;;;9.50;5.10;;;;;;;24.65;40.29;100767.01;1782221;79;22278;-68
2021/09/08 08:45:10;;;;;;;8.78;5.28;;;;;;;24.65;40.23;100765.11;1772306;79;21522;-67
2021/09/08 08:47:37;;;;;;;8.38;5.55;;;;;;;24.67;40.15;100769.77;1789948;79;21013;-69
2021/09/08 08:50:05;;;;;;;7.15;5.28;;;;;;;24.69;40.08;100769.55;1759334;79;21052;-69
2021/09/08 08:52:31;;;;;;;8.68;5.10;;;;;;;24.69;39.97;100757.32;1774783;79;21082;-68
2021/09/08 08:54:58;;;;;;;8.75;5.25;;;;;;;24.70;39.84;100755.70;1782354;78;21127;-68
2021/09/08 08:57:24;;;;;;;9.93;5.85;;;;;;;24.72;39.73;100748.67;1779553;79;21016;-67
2021/09/08 08:59:51;;;;;;;7.22;5.20;;;;;;;24.73;39.67;100744.37;1770091;79;21087;-68
2021/09/08 09:02:31;;;;;;;7.53;5.15;;;;;;;24.75;39.68;100746.86;1780750;79;21087;-69
2021/09/08 09:05:01;;;;;;;10.20;5.97;;;;;;;24.76;39.65;100748.49;1786006;79;21546;-67
2021/09/08 09:07:35;;;;;;;8.78;5.20;;;;;;;24.78;39.67;100749.08;1790962;79;21107;-67
2021/09/08 09:10:06;;;;;;;6.00;4.53;;;;;;;24.81;39.72;100751.87;1793215;79;21076;-68
2021/09/08 09:12:37;;;;;;;5.85;4.95;;;;;;;24.80;39.91;100736.62;1786307;78;21104;-68
2021/09/08 09:15:09;;;;;;;7.35;4.55;;;;;;;24.83;39.93;100745.13;1784203;79;21496;-68
2021/09/08 09:17:36;;;;;;;6.80;4.80;;;;;;;24.85;40.19;100742.99;1786750;79;21085;-68
2021/09/08 09:20:10;;;;;;;5.65;4.50;;;;;;;24.87;40.45;100729.17;1795926;79;21092;-67
2021/09/08 09:22:44;;;;;;;7.83;4.42;;;;;;;24.89;40.49;100727.86;1788813;79;20990;-68
2021/09/08 09:25:19;;;;;;;7.60;4.47;;;;;;;24.91;40.52;100729.80;1793356;79;21065;-67
2021/09/08 09:27:58;;;;;;;5.70;3.85;;;;;;;24.93;40.62;100723.59;1775914;79;21082;-67
2021/09/08 09:30:29;;;;;;;9.65;5.37;;;;;;;24.96;40.53;100731.00;1782485;78;21557;-68
2021/09/08 09:32:59;;;;;;;6.05;4.30;;;;;;;24.97;40.40;100721.23;1769373;80;21120;-67
2021/09/08 09:35:28;;;;;;;7.20;4.25;;;;;;;24.99;40.39;100730.51;1776022;80;21025;-67
2021/09/08 09:37:58;;;;;;;5.17;3.95;;;;;;;25.00;40.35;100735.70;1777629;80;21561;-69
2021/09/08 09:40:29;;;;;;;7.28;4.55;;;;;;;25.03;40.42;100718.90;1782203;80;21474;-67
2021/09/08 09:42:56;;;;;;;6.00;4.33;;;;;;;25.04;40.36;100710.23;1761080;80;21084;-66
2021/09/08 09:45:22;;;;;;;6.50;3.80;;;;;;;25.06;40.29;100711.64;1764699;80;21177;-67
2021/09/08 09:47:49;;;;;;;7.75;4.47;;;;;;;25.07;40.16;100709.73;1759036;80;21013;-68
2021/09/08 09:50:20;;;;;;;4.62;3.95;;;;;;;25.08;40.14;100692.38;1773761;80;21042;-68
2021/09/08 09:52:55;;;;;;;6.25;4.53;;;;;;;25.08;40.09;100699.98;1776180;80;20985;-68
2021/09/08 09:55:22;;;;;;;7.20;4.00;;;;;;;25.09;40.04;100693.50;1778868;80;21134;-67
2021/09/08 09:57:49;;;;;;;5.22;4.42;;;;;;;25.10;39.96;100701.11;1760474;80;21561;-67
2021/09/08 10:00:17;;;;;;;6.10;4.30;;;;;;;25.10;39.87;100699.75;1752521;80;21670;-67
2021/09/08 10:02:44;;;;;;;4.90;4.10;;;;;;;25.11;39.83;100683.20;1760822;80;21049;-67
2021/09/08 10:05:11;;;;;;;6.55;4.35;;;;;;;25.12;39.74;100689.46;1772869;80;20997;-68
2021/09/08 10:07:37;;;;;;;6.75;4.28;;;;;;;25.13;39.70;100678.89;1795664;79;21116;-67
2021/09/08 10:10:27;;;;;;;7.40;4.17;;;;;;;25.14;39.64;100676.45;1778240;80;21085;-67
2021/09/08 10:13:05;;;;;;;4.33;3.92;;;;;;;25.15;39.57;100679.48;1766254;80;21069;-71
2021/09/08 10:15:32;;;;;;;4.55;3.92;;;;;;;25.17;39.66;100680.56;1752160;80;21081;-71
2021/09/08 10:18:08;;;;;;;5.20;3.92;;;;;;;25.19;39.63;100667.55;1764241;80;21142;-69
2021/09/08 10:20:34;;;;;;;5.67;3.85;;;;;;;25.22;39.68;100672.52;1779830;78;21014;-70
2021/09/08 10:23:10;;;;;;;7.47;4.37;;;;;;;25.24;39.70;100671.23;1771679;78;22337;-69
2021/09/08 10:25:39;;;;;;;7.00;4.67;;;;;;;25.28;39.72;100669.70;1760240;80;21073;-70
2021/09/08 10:28:06;;;;;;;6.55;3.55;;;;;;;25.30;39.81;100662.12;1768579;79;21029;-70
2021/09/08 10:30:33;;;;;;;5.55;4.22;;;;;;;25.33;39.79;100680.38;1740331;81;21585;-70
2021/09/08 10:33:04;;;;;;;5.70;4.03;;;;;;;25.35;39.85;100670.08;1789220;79;21034;-69
2021/09/08 10:35:34;;;;;;;8.58;3.87;;;;;;;25.38;39.90;100678.59;1789460;78;21155;-71
2021/09/08 10:37:57;;;;;;;9.58;4.25;;;;;;;25.40;39.90;100659.28;1781765;78;21071;-70
2021/09/08 10:42:06;;;;;;;6.05;4.67;;;;;;;25.49;40.13;100661.36;1832957;76;22497;-69
2021/09/08 10:44:50;;;;;;;6.58;4.42;;;;;;;25.47;40.08;100660.78;1777367;80;21057;-69
2021/09/08 10:47:37;;;;;;;6.87;4.03;;;;;;;25.51;40.06;100663.30;1787757;78;21070;-68
2021/09/08 10:50:05;;;;;;;5.47;4.42;;;;;;;25.54;40.02;100659.82;1784567;78;21077;-69
2021/09/08 10:52:39;;;;;;;9.13;4.20;;;;;;;25.57;40.04;100653.33;1779138;78;21485;-69
2021/09/08 10:55:15;;;;;;;5.05;4.37;;;;;;;25.59;39.99;100654.45;1795570;78;21099;-69
2021/09/08 10:57:52;;;;;;;5.42;4.30;;;;;;;25.62;40.11;100651.25;1784647;78;21122;-69
2021/09/08 11:00:23;;;;;;;7.87;4.67;;;;;;;25.64;40.19;100646.39;1778642;78;21149;-68
2021/09/08 11:02:50;;;;;;;8.75;4.33;;;;;;;25.67;40.12;100650.80;1780569;78;21077;-68
2021/09/08 11:05:16;;;;;;;8.70;4.80;;;;;;;25.70;40.01;100654.37;1789976;78;21599;-69
2021/09/08 11:07:46;;;;;;;8.00;4.70;;;;;;;25.74;39.98;100653.89;1791603;78;20995;-68
2021/09/08 11:10:24;;;;;;;8.65;5.53;;;;;;;25.77;39.92;100673.80;1751769;81;21025;-69
2021/09/08 11:12:55;;;;;;;8.58;4.47;;;;;;;25.80;39.99;100671.41;1721292;81;21640;-70
2021/09/08 11:15:39;;;;;;;6.33;3.83;;;;;;;25.84;40.05;100659.50;1742097;81;21144;-68
2021/09/08 11:18:11;;;;;;;6.25;4.70;;;;;;;25.87;39.94;100664.45;1755804;81;21517;-69
2021/09/08 11:20:39;;;;;;;8.95;4.47;;;;;;;25.89;39.80;100661.77;1738966;81;21030;-68
2021/09/08 11:23:12;;;;;;;13.40;4.17;;;;;;;25.92;39.81;100650.94;1744474;81;21581;-69
2021/09/08 11:25:41;;;;;;;5.05;3.80;;;;;;;25.97;39.84;100647.49;1739423;81;21133;-70
2021/09/08 11:28:08;;;;;;;7.90;4.47;;;;;;;25.98;39.78;100641.81;1745120;81;21560;-68